sensor_id;sensor_type;location;lat;lon;timestamp;temperature;humidity
24011;DHT22;12217;50.792;4.372;2023-10-13T00:02:07;19.70;99.90
24011;DHT22;12217;50.792;4.372;2023-10-13T00:04:34;19.70;99.90
24011;DHT22;12217;50.792;4.372;2023-10-13T00:07:03;19.70;99.90
24011;DHT22;12217;50.792;4.372;2023-10-13T00:09:30;19.70;99.90
24011;DHT22;12217;50.792;4.372;2023-10-13T00:11:59;19.70;99.90
24011;DHT22;12217;50.792;4.372;2023-10-13T00:14:25;19.70;99.90
24011;DHT22;12217;50.792;4.372;2023-10-13T00:17:04;19.70;99.90
24011;DHT22;12217;50.792;4.372;2023-10-13T00:19:34;19.60;99.90
24011;DHT22;12217;50.792;4.372;2023-10-13T00:22:08;19.70;99.90
24011;DHT22;12217;50.792;4.372;2023-10-13T00:24:38;19.70;99.90
24011;DHT22;12217;50.792;4.372;2023-10-13T00:27:15;19.70;99.90
24011;DHT22;12217;50.792;4.372;2023-10-13T00:30:00;19.80;99.90
24011;DHT22;12217;50.792;4.372;2023-10-13T00:32:45;19.90;99.90
24011;DHT22;12217;50.792;4.372;2023-10-13T00:35:25;19.80;99.90
24011;DHT22;12217;50.792;4.372;2023-10-13T00:37:52;19.70;99.90
24011;DHT22;12217;50.792;4.372;2023-10-13T00:40:22;19.60;99.90
24011;DHT22;12217;50.792;4.372;2023-10-13T00:43:00;19.70;99.90
24011;DHT22;12217;50.792;4.372;2023-10-13T00:45:55;19.70;99.90
24011;DHT22;12217;50.792;4.372;2023-10-13T00:48:29;19.60;99.90
24011;DHT22;12217;50.792;4.372;2023-10-13T00:51:02;19.60;99.90
24011;DHT22;12217;50.792;4.372;2023-10-13T00:53:29;19.70;99.90
24011;DHT22;12217;50.792;4.372;2023-10-13T00:56:02;19.70;99.90
24011;DHT22;12217;50.792;4.372;2023-10-13T00:58:34;19.50;99.90
24011;DHT22;12217;50.792;4.372;2023-10-13T01:01:02;19.60;99.90
24011;DHT22;12217;50.792;4.372;2023-10-13T01:03:53;19.60;99.90
24011;DHT22;12217;50.792;4.372;2023-10-13T01:06:25;19.60;99.90
24011;DHT22;12217;50.792;4.372;2023-10-13T01:09:04;19.50;99.90
24011;DHT22;12217;50.792;4.372;2023-10-13T01:11:49;19.40;99.90
24011;DHT22;12217;50.792;4.372;2023-10-13T01:14:19;19.40;99.90
24011;DHT22;12217;50.792;4.372;2023-10-13T01:16:46;19.40;99.90
24011;DHT22;12217;50.792;4.372;2023-10-13T01:19:16;19.30;99.90
24011;DHT22;12217;50.792;4.372;2023-10-13T01:21:49;19.40;99.90
24011;DHT22;12217;50.792;4.372;2023-10-13T01:24:15;19.40;99.90
24011;DHT22;12217;50.792;4.372;2023-10-13T01:26:46;19.30;99.90
24011;DHT22;12217;50.792;4.372;2023-10-13T01:29:16;19.10;99.90
24011;DHT22;12217;50.792;4.372;2023-10-13T01:31:45;19.20;99.90
24011;DHT22;12217;50.792;4.372;2023-10-13T01:34:18;19.30;99.90
24011;DHT22;12217;50.792;4.372;2023-10-13T01:36:55;19.30;99.90
24011;DHT22;12217;50.792;4.372;2023-10-13T01:39:23;19.20;99.90
24011;DHT22;12217;50.792;4.372;2023-10-13T01:41:53;19.30;99.90
24011;DHT22;12217;50.792;4.372;2023-10-13T01:44:25;19.30;99.90
24011;DHT22;12217;50.792;4.372;2023-10-13T01:46:56;19.30;99.90
24011;DHT22;12217;50.792;4.372;2023-10-13T01:49:27;19.10;99.90
24011;DHT22;12217;50.792;4.372;2023-10-13T01:51:53;19.20;99.90
24011;DHT22;12217;50.792;4.372;2023-10-13T01:54:19;19.30;99.90
24011;DHT22;12217;50.792;4.372;2023-10-13T01:56:46;19.30;99.90
24011;DHT22;12217;50.792;4.372;2023-10-13T01:59:14;19.30;99.90
24011;DHT22;12217;50.792;4.372;2023-10-13T02:01:41;19.30;99.90
24011;DHT22;12217;50.792;4.372;2023-10-13T02:04:08;19.30;99.90
24011;DHT22;12217;50.792;4.372;2023-10-13T02:06:36;19.20;99.90
24011;DHT22;12217;50.792;4.372;2023-10-13T02:09:07;19.10;99.90
24011;DHT22;12217;50.792;4.372;2023-10-13T02:11:45;19.10;99.90
24011;DHT22;12217;50.792;4.372;2023-10-13T02:14:12;19.00;99.90
24011;DHT22;12217;50.792;4.372;2023-10-13T02:16:38;19.20;99.90
24011;DHT22;12217;50.792;4.372;2023-10-13T02:19:04;19.10;99.90
24011;DHT22;12217;50.792;4.372;2023-10-13T02:21:34;19.00;99.90
24011;DHT22;12217;50.792;4.372;2023-10-13T02:24:08;19.10;99.90
24011;DHT22;12217;50.792;4.372;2023-10-13T02:26:46;19.10;99.90
24011;DHT22;12217;50.792;4.372;2023-10-13T02:29:12;19.00;99.90
24011;DHT22;12217;50.792;4.372;2023-10-13T02:31:41;19.10;99.90
24011;DHT22;12217;50.792;4.372;2023-10-13T02:34:07;19.00;99.90
24011;DHT22;12217;50.792;4.372;2023-10-13T02:36:37;19.00;99.90
24011;DHT22;12217;50.792;4.372;2023-10-13T02:39:16;19.00;99.90
24011;DHT22;12217;50.792;4.372;2023-10-13T02:41:42;19.10;99.90
24011;DHT22;12217;50.792;4.372;2023-10-13T02:44:13;19.10;99.90
24011;DHT22;12217;50.792;4.372;2023-10-13T02:46:52;19.00;99.90
24011;DHT22;12217;50.792;4.372;2023-10-13T02:49:22;19.10;99.90
24011;DHT22;12217;50.792;4.372;2023-10-13T02:51:47;19.10;99.90
24011;DHT22;12217;50.792;4.372;2023-10-13T02:54:13;19.20;99.90
24011;DHT22;12217;50.792;4.372;2023-10-13T02:56:44;19.20;99.90
24011;DHT22;12217;50.792;4.372;2023-10-13T02:59:30;19.20;99.90
24011;DHT22;12217;50.792;4.372;2023-10-13T03:02:22;19.10;99.90
24011;DHT22;12217;50.792;4.372;2023-10-13T03:04:55;19.20;99.90
24011;DHT22;12217;50.792;4.372;2023-10-13T03:07:39;19.20;99.90
24011;DHT22;12217;50.792;4.372;2023-10-13T03:10:09;19.20;99.90
24011;DHT22;12217;50.792;4.372;2023-10-13T03:12:40;19.30;99.90
24011;DHT22;12217;50.792;4.372;2023-10-13T03:15:07;19.20;99.90
24011;DHT22;12217;50.792;4.372;2023-10-13T03:17:59;19.30;99.90
24011;DHT22;12217;50.792;4.372;2023-10-13T03:20:25;19.30;99.90
24011;DHT22;12217;50.792;4.372;2023-10-13T03:22:59;19.30;99.90
24011;DHT22;12217;50.792;4.372;2023-10-13T03:25:25;19.10;99.90
24011;DHT22;12217;50.792;4.372;2023-10-13T03:27:54;19.10;99.90
24011;DHT22;12217;50.792;4.372;2023-10-13T03:30:20;19.10;99.90
24011;DHT22;12217;50.792;4.372;2023-10-13T03:32:55;18.90;99.90
24011;DHT22;12217;50.792;4.372;2023-10-13T03:35:22;18.90;99.90
24011;DHT22;12217;50.792;4.372;2023-10-13T03:37:54;18.90;99.90
24011;DHT22;12217;50.792;4.372;2023-10-13T03:40:21;18.90;99.90
24011;DHT22;12217;50.792;4.372;2023-10-13T03:42:54;19.00;99.90
24011;DHT22;12217;50.792;4.372;2023-10-13T03:45:30;19.00;99.90
24011;DHT22;12217;50.792;4.372;2023-10-13T03:48:02;18.90;99.90
24011;DHT22;12217;50.792;4.372;2023-10-13T03:50:35;19.00;99.90
24011;DHT22;12217;50.792;4.372;2023-10-13T03:53:02;18.90;99.90
24011;DHT22;12217;50.792;4.372;2023-10-13T03:55:28;18.80;99.90
24011;DHT22;12217;50.792;4.372;2023-10-13T03:57:54;18.70;99.90
24011;DHT22;12217;50.792;4.372;2023-10-13T04:00:22;18.80;99.90
24011;DHT22;12217;50.792;4.372;2023-10-13T04:02:52;18.80;99.90
24011;DHT22;12217;50.792;4.372;2023-10-13T04:05:38;18.80;99.90
24011;DHT22;12217;50.792;4.372;2023-10-13T04:08:26;18.80;99.90
24011;DHT22;12217;50.792;4.372;2023-10-13T04:10:53;18.80;99.90
24011;DHT22;12217;50.792;4.372;2023-10-13T04:13:19;18.90;99.90
24011;DHT22;12217;50.792;4.372;2023-10-13T04:15:45;18.90;99.90
24011;DHT22;12217;50.792;4.372;2023-10-13T04:18:29;18.80;99.90
24011;DHT22;12217;50.792;4.372;2023-10-13T04:21:14;18.80;99.90
24011;DHT22;12217;50.792;4.372;2023-10-13T04:23:58;18.80;99.90
24011;DHT22;12217;50.792;4.372;2023-10-13T04:26:42;18.70;99.90
24011;DHT22;12217;50.792;4.372;2023-10-13T04:29:28;18.80;99.90
24011;DHT22;12217;50.792;4.372;2023-10-13T04:32:12;18.80;99.90
24011;DHT22;12217;50.792;4.372;2023-10-13T04:34:41;18.70;99.90
24011;DHT22;12217;50.792;4.372;2023-10-13T04:37:12;18.80;99.90
24011;DHT22;12217;50.792;4.372;2023-10-13T04:39:58;18.80;99.90
24011;DHT22;12217;50.792;4.372;2023-10-13T04:42:37;19.00;99.90
24011;DHT22;12217;50.792;4.372;2023-10-13T04:45:18;19.30;99.90
24011;DHT22;12217;50.792;4.372;2023-10-13T04:47:56;19.40;99.90
24011;DHT22;12217;50.792;4.372;2023-10-13T04:50:40;19.30;99.90
24011;DHT22;12217;50.792;4.372;2023-10-13T04:53:16;19.40;99.90
24011;DHT22;12217;50.792;4.372;2023-10-13T04:56:20;19.40;99.90
24011;DHT22;12217;50.792;4.372;2023-10-13T04:59:06;19.20;99.90
24011;DHT22;12217;50.792;4.372;2023-10-13T05:02:01;19.20;99.90
24011;DHT22;12217;50.792;4.372;2023-10-13T05:04:46;19.10;99.90
24011;DHT22;12217;50.792;4.372;2023-10-13T05:07:38;19.10;99.90
24011;DHT22;12217;50.792;4.372;2023-10-13T05:10:23;19.10;99.90
24011;DHT22;12217;50.792;4.372;2023-10-13T05:13:07;19.00;99.90
24011;DHT22;12217;50.792;4.372;2023-10-13T05:15:51;19.00;99.90
24011;DHT22;12217;50.792;4.372;2023-10-13T05:18:36;19.00;99.90
24011;DHT22;12217;50.792;4.372;2023-10-13T05:21:20;19.10;99.90
24011;DHT22;12217;50.792;4.372;2023-10-13T05:24:05;19.20;99.90
24011;DHT22;12217;50.792;4.372;2023-10-13T05:26:50;19.20;99.90
24011;DHT22;12217;50.792;4.372;2023-10-13T05:29:38;19.30;99.90
24011;DHT22;12217;50.792;4.372;2023-10-13T05:32:22;19.20;99.90
24011;DHT22;12217;50.792;4.372;2023-10-13T05:35:06;19.20;99.90
24011;DHT22;12217;50.792;4.372;2023-10-13T05:37:51;19.40;99.90
24011;DHT22;12217;50.792;4.372;2023-10-13T05:40:35;19.40;99.90
24011;DHT22;12217;50.792;4.372;2023-10-13T05:43:19;19.30;99.90
24011;DHT22;12217;50.792;4.372;2023-10-13T05:46:04;19.40;99.90
24011;DHT22;12217;50.792;4.372;2023-10-13T05:49:07;19.30;99.90
24011;DHT22;12217;50.792;4.372;2023-10-13T05:51:42;19.30;99.90
24011;DHT22;12217;50.792;4.372;2023-10-13T05:54:23;19.30;99.90
24011;DHT22;12217;50.792;4.372;2023-10-13T05:57:07;19.30;99.90
24011;DHT22;12217;50.792;4.372;2023-10-13T05:59:51;19.30;99.90
24011;DHT22;12217;50.792;4.372;2023-10-13T06:02:35;19.30;99.90
24011;DHT22;12217;50.792;4.372;2023-10-13T06:05:19;19.20;99.90
24011;DHT22;12217;50.792;4.372;2023-10-13T06:08:04;19.20;99.90
24011;DHT22;12217;50.792;4.372;2023-10-13T06:10:48;19.20;99.90
24011;DHT22;12217;50.792;4.372;2023-10-13T06:13:32;19.10;99.90
24011;DHT22;12217;50.792;4.372;2023-10-13T06:16:17;19.10;99.90
24011;DHT22;12217;50.792;4.372;2023-10-13T06:19:02;19.20;99.90
24011;DHT22;12217;50.792;4.372;2023-10-13T06:21:46;19.20;99.90
24011;DHT22;12217;50.792;4.372;2023-10-13T06:24:31;19.20;99.90
24011;DHT22;12217;50.792;4.372;2023-10-13T06:27:16;19.20;99.90
24011;DHT22;12217;50.792;4.372;2023-10-13T06:30:01;19.10;99.90
24011;DHT22;12217;50.792;4.372;2023-10-13T06:32:28;19.20;99.90
24011;DHT22;12217;50.792;4.372;2023-10-13T06:34:55;19.20;99.90
24011;DHT22;12217;50.792;4.372;2023-10-13T06:37:26;19.30;99.90
24011;DHT22;12217;50.792;4.372;2023-10-13T06:40:02;19.30;99.90
24011;DHT22;12217;50.792;4.372;2023-10-13T06:42:50;19.20;99.90
24011;DHT22;12217;50.792;4.372;2023-10-13T06:45:16;19.00;99.90
24011;DHT22;12217;50.792;4.372;2023-10-13T06:47:46;19.00;99.90
24011;DHT22;12217;50.792;4.372;2023-10-13T06:50:13;19.10;99.90
24011;DHT22;12217;50.792;4.372;2023-10-13T06:52:45;19.20;99.90
24011;DHT22;12217;50.792;4.372;2023-10-13T06:55:15;19.10;99.90
24011;DHT22;12217;50.792;4.372;2023-10-13T06:57:49;19.20;99.90
24011;DHT22;12217;50.792;4.372;2023-10-13T07:00:16;19.30;99.90
24011;DHT22;12217;50.792;4.372;2023-10-13T07:02:52;19.30;99.90
24011;DHT22;12217;50.792;4.372;2023-10-13T07:05:18;19.40;99.90
24011;DHT22;12217;50.792;4.372;2023-10-13T07:07:45;19.30;99.90
24011;DHT22;12217;50.792;4.372;2023-10-13T07:10:12;19.20;99.90
24011;DHT22;12217;50.792;4.372;2023-10-13T07:12:41;19.20;99.90
24011;DHT22;12217;50.792;4.372;2023-10-13T07:15:12;19.40;99.90
24011;DHT22;12217;50.792;4.372;2023-10-13T07:17:47;19.40;99.90
24011;DHT22;12217;50.792;4.372;2023-10-13T07:20:20;19.60;99.90
24011;DHT22;12217;50.792;4.372;2023-10-13T07:22:54;19.50;99.90
24011;DHT22;12217;50.792;4.372;2023-10-13T07:25:23;19.50;99.90
24011;DHT22;12217;50.792;4.372;2023-10-13T07:27:50;19.50;99.90
24011;DHT22;12217;50.792;4.372;2023-10-13T07:30:17;19.50;99.90
24011;DHT22;12217;50.792;4.372;2023-10-13T07:32:46;19.60;99.90
24011;DHT22;12217;50.792;4.372;2023-10-13T07:35:15;19.50;99.90
24011;DHT22;12217;50.792;4.372;2023-10-13T07:37:43;19.50;99.90
24011;DHT22;12217;50.792;4.372;2023-10-13T07:40:10;19.60;99.90
24011;DHT22;12217;50.792;4.372;2023-10-13T07:42:52;19.70;99.90
24011;DHT22;12217;50.792;4.372;2023-10-13T07:45:18;19.70;99.90
24011;DHT22;12217;50.792;4.372;2023-10-13T07:47:47;19.70;99.90
24011;DHT22;12217;50.792;4.372;2023-10-13T07:50:14;19.80;99.90
24011;DHT22;12217;50.792;4.372;2023-10-13T07:52:39;19.80;99.90
24011;DHT22;12217;50.792;4.372;2023-10-13T07:55:23;19.80;99.90
24011;DHT22;12217;50.792;4.372;2023-10-13T07:57:49;19.90;99.90
24011;DHT22;12217;50.792;4.372;2023-10-13T08:00:23;19.90;99.90
24011;DHT22;12217;50.792;4.372;2023-10-13T08:03:25;20.00;99.90
24011;DHT22;12217;50.792;4.372;2023-10-13T08:06:14;20.10;99.90
24011;DHT22;12217;50.792;4.372;2023-10-13T08:08:40;20.10;99.90
24011;DHT22;12217;50.792;4.372;2023-10-13T08:11:13;20.20;99.90
24011;DHT22;12217;50.792;4.372;2023-10-13T08:13:49;20.20;99.90
24011;DHT22;12217;50.792;4.372;2023-10-13T08:16:22;20.20;99.90
24011;DHT22;12217;50.792;4.372;2023-10-13T08:18:52;20.30;99.90
24011;DHT22;12217;50.792;4.372;2023-10-13T08:21:19;20.30;99.90
24011;DHT22;12217;50.792;4.372;2023-10-13T08:23:51;20.40;99.90
24011;DHT22;12217;50.792;4.372;2023-10-13T08:26:24;20.40;99.90
24011;DHT22;12217;50.792;4.372;2023-10-13T08:28:59;20.30;99.90
24011;DHT22;12217;50.792;4.372;2023-10-13T08:31:45;20.30;99.90
24011;DHT22;12217;50.792;4.372;2023-10-13T08:34:32;20.30;99.90
24011;DHT22;12217;50.792;4.372;2023-10-13T08:37:05;20.60;99.90
24011;DHT22;12217;50.792;4.372;2023-10-13T08:39:58;20.50;99.90
24011;DHT22;12217;50.792;4.372;2023-10-13T08:42:37;20.50;99.90
24011;DHT22;12217;50.792;4.372;2023-10-13T08:47:54;20.50;99.90
24011;DHT22;12217;50.792;4.372;2023-10-13T08:50:34;20.50;99.90
24011;DHT22;12217;50.792;4.372;2023-10-13T08:53:25;20.60;99.90
24011;DHT22;12217;50.792;4.372;2023-10-13T08:59:00;20.60;99.90
24011;DHT22;12217;50.792;4.372;2023-10-13T09:01:33;20.60;99.90
24011;DHT22;12217;50.792;4.372;2023-10-13T09:04:17;20.50;99.90
24011;DHT22;12217;50.792;4.372;2023-10-13T09:14:41;20.60;99.90
24011;DHT22;12217;50.792;4.372;2023-10-13T09:17:13;20.60;99.90
24011;DHT22;12217;50.792;4.372;2023-10-13T09:19:49;20.60;99.90
24011;DHT22;12217;50.792;4.372;2023-10-13T09:22:28;20.60;99.90
24011;DHT22;12217;50.792;4.372;2023-10-13T09:25:04;20.70;99.90
24011;DHT22;12217;50.792;4.372;2023-10-13T09:27:39;20.70;99.90
24011;DHT22;12217;50.792;4.372;2023-10-13T09:30:06;20.60;99.90
24011;DHT22;12217;50.792;4.372;2023-10-13T09:32:34;20.70;99.90
24011;DHT22;12217;50.792;4.372;2023-10-13T09:35:23;20.70;99.90
24011;DHT22;12217;50.792;4.372;2023-10-13T09:37:53;20.80;99.90
24011;DHT22;12217;50.792;4.372;2023-10-13T09:40:22;20.70;99.90
24011;DHT22;12217;50.792;4.372;2023-10-13T09:42:53;20.80;99.90
24011;DHT22;12217;50.792;4.372;2023-10-13T09:45:28;20.80;99.90
24011;DHT22;12217;50.792;4.372;2023-10-13T09:47:55;20.80;99.90
24011;DHT22;12217;50.792;4.372;2023-10-13T09:50:37;20.90;99.90
24011;DHT22;12217;50.792;4.372;2023-10-13T09:53:06;21.00;99.90
24011;DHT22;12217;50.792;4.372;2023-10-13T09:55:38;21.00;99.90
24011;DHT22;12217;50.792;4.372;2023-10-13T09:58:11;21.00;99.90
24011;DHT22;12217;50.792;4.372;2023-10-13T10:00:51;21.20;99.90
24011;DHT22;12217;50.792;4.372;2023-10-13T10:03:26;21.30;99.90
24011;DHT22;12217;50.792;4.372;2023-10-13T10:05:56;21.30;99.90
24011;DHT22;12217;50.792;4.372;2023-10-13T10:08:32;21.40;99.90
24011;DHT22;12217;50.792;4.372;2023-10-13T10:14:08;21.50;99.90
24011;DHT22;12217;50.792;4.372;2023-10-13T10:19:49;21.60;99.90
24011;DHT22;12217;50.792;4.372;2023-10-13T10:22:24;21.50;99.90
24011;DHT22;12217;50.792;4.372;2023-10-13T10:25:02;21.70;99.90
24011;DHT22;12217;50.792;4.372;2023-10-13T10:27:30;21.70;99.90
24011;DHT22;12217;50.792;4.372;2023-10-13T10:29:57;21.80;99.90
24011;DHT22;12217;50.792;4.372;2023-10-13T10:32:55;22.00;99.90
24011;DHT22;12217;50.792;4.372;2023-10-13T10:35:59;22.00;99.90
24011;DHT22;12217;50.792;4.372;2023-10-13T10:38:25;21.90;99.90
24011;DHT22;12217;50.792;4.372;2023-10-13T10:40:58;21.90;99.90
24011;DHT22;12217;50.792;4.372;2023-10-13T10:43:39;21.90;99.90
24011;DHT22;12217;50.792;4.372;2023-10-13T10:46:17;22.00;99.90
24011;DHT22;12217;50.792;4.372;2023-10-13T10:48:44;22.10;99.90
24011;DHT22;12217;50.792;4.372;2023-10-13T10:51:11;22.20;99.90
24011;DHT22;12217;50.792;4.372;2023-10-13T10:53:41;22.30;99.90
24011;DHT22;12217;50.792;4.372;2023-10-13T10:56:14;22.30;99.90
24011;DHT22;12217;50.792;4.372;2023-10-13T10:58:50;22.50;99.90
24011;DHT22;12217;50.792;4.372;2023-10-13T11:01:24;22.70;99.90
24011;DHT22;12217;50.792;4.372;2023-10-13T11:03:59;22.80;99.90
24011;DHT22;12217;50.792;4.372;2023-10-13T11:06:37;22.80;99.90
24011;DHT22;12217;50.792;4.372;2023-10-13T11:09:12;22.70;99.90
24011;DHT22;12217;50.792;4.372;2023-10-13T11:12:14;22.50;99.90
24011;DHT22;12217;50.792;4.372;2023-10-13T11:14:48;22.60;99.90
24011;DHT22;12217;50.792;4.372;2023-10-13T11:17:22;22.60;99.90
24011;DHT22;12217;50.792;4.372;2023-10-13T11:20:11;22.70;99.90
24011;DHT22;12217;50.792;4.372;2023-10-13T11:22:45;22.70;99.90
24011;DHT22;12217;50.792;4.372;2023-10-13T11:25:20;22.70;99.90
24011;DHT22;12217;50.792;4.372;2023-10-13T11:27:48;22.60;99.90
24011;DHT22;12217;50.792;4.372;2023-10-13T11:30:15;22.80;99.90
24011;DHT22;12217;50.792;4.372;2023-10-13T11:33:08;22.80;99.90
24011;DHT22;12217;50.792;4.372;2023-10-13T11:35:38;22.90;99.90
24011;DHT22;12217;50.792;4.372;2023-10-13T11:38:30;22.90;99.90
24011;DHT22;12217;50.792;4.372;2023-10-13T11:41:15;22.90;99.90
24011;DHT22;12217;50.792;4.372;2023-10-13T11:46:18;22.90;99.90
24011;DHT22;12217;50.792;4.372;2023-10-13T11:49:09;23.00;99.90
24011;DHT22;12217;50.792;4.372;2023-10-13T11:54:17;23.00;99.90
24011;DHT22;12217;50.792;4.372;2023-10-13T11:56:47;22.90;99.90
24011;DHT22;12217;50.792;4.372;2023-10-13T11:59:13;23.00;99.90
24011;DHT22;12217;50.792;4.372;2023-10-13T12:01:50;22.90;99.90
24011;DHT22;12217;50.792;4.372;2023-10-13T12:04:35;22.90;99.90
24011;DHT22;12217;50.792;4.372;2023-10-13T12:07:14;22.90;99.90
24011;DHT22;12217;50.792;4.372;2023-10-13T12:09:47;22.90;99.90
24011;DHT22;12217;50.792;4.372;2023-10-13T12:12:26;22.90;99.90
24011;DHT22;12217;50.792;4.372;2023-10-13T12:14:52;23.00;99.90
24011;DHT22;12217;50.792;4.372;2023-10-13T12:17:23;23.00;99.90
24011;DHT22;12217;50.792;4.372;2023-10-13T12:20:04;22.90;99.90
24011;DHT22;12217;50.792;4.372;2023-10-13T12:22:34;22.80;99.90
24011;DHT22;12217;50.792;4.372;2023-10-13T12:25:11;22.70;99.90
24011;DHT22;12217;50.792;4.372;2023-10-13T12:28:10;22.70;99.90
24011;DHT22;12217;50.792;4.372;2023-10-13T12:30:44;22.60;99.90
24011;DHT22;12217;50.792;4.372;2023-10-13T12:33:21;22.60;99.90
24011;DHT22;12217;50.792;4.372;2023-10-13T12:36:00;22.60;99.90
24011;DHT22;12217;50.792;4.372;2023-10-13T12:38:35;22.70;99.90
24011;DHT22;12217;50.792;4.372;2023-10-13T12:41:22;22.70;99.90
24011;DHT22;12217;50.792;4.372;2023-10-13T12:44:06;22.60;99.90
24011;DHT22;12217;50.792;4.372;2023-10-13T12:46:52;22.60;99.90
24011;DHT22;12217;50.792;4.372;2023-10-13T12:49:37;22.50;99.90
24011;DHT22;12217;50.792;4.372;2023-10-13T12:52:12;22.50;99.90
24011;DHT22;12217;50.792;4.372;2023-10-13T12:55:01;22.50;99.90
24011;DHT22;12217;50.792;4.372;2023-10-13T12:57:35;22.50;99.90
24011;DHT22;12217;50.792;4.372;2023-10-13T13:00:09;22.40;99.90
24011;DHT22;12217;50.792;4.372;2023-10-13T13:02:42;22.30;99.90
24011;DHT22;12217;50.792;4.372;2023-10-13T13:05:08;22.40;99.90
24011;DHT22;12217;50.792;4.372;2023-10-13T13:07:40;22.40;99.90
24011;DHT22;12217;50.792;4.372;2023-10-13T13:10:13;22.40;99.90
24011;DHT22;12217;50.792;4.372;2023-10-13T13:12:40;22.30;99.90
24011;DHT22;12217;50.792;4.372;2023-10-13T13:15:06;22.30;99.90
24011;DHT22;12217;50.792;4.372;2023-10-13T13:17:37;22.40;99.90
24011;DHT22;12217;50.792;4.372;2023-10-13T13:20:08;22.50;99.90
24011;DHT22;12217;50.792;4.372;2023-10-13T13:22:38;22.50;99.90
24011;DHT22;12217;50.792;4.372;2023-10-13T13:25:04;22.50;99.90
24011;DHT22;12217;50.792;4.372;2023-10-13T13:27:35;22.40;99.90
24011;DHT22;12217;50.792;4.372;2023-10-13T13:30:02;22.30;99.90
24011;DHT22;12217;50.792;4.372;2023-10-13T13:32:37;22.30;99.90
24011;DHT22;12217;50.792;4.372;2023-10-13T13:35:03;22.20;99.90
24011;DHT22;12217;50.792;4.372;2023-10-13T13:37:33;22.30;99.90
24011;DHT22;12217;50.792;4.372;2023-10-13T13:39:59;22.30;99.90
24011;DHT22;12217;50.792;4.372;2023-10-13T13:42:43;22.40;99.90
24011;DHT22;12217;50.792;4.372;2023-10-13T13:45:15;22.40;99.90
24011;DHT22;12217;50.792;4.372;2023-10-13T13:47:50;22.60;99.90
24011;DHT22;12217;50.792;4.372;2023-10-13T13:50:23;22.90;99.90
24011;DHT22;12217;50.792;4.372;2023-10-13T13:52:56;23.20;99.90
24011;DHT22;12217;50.792;4.372;2023-10-13T13:55:23;23.30;99.90
24011;DHT22;12217;50.792;4.372;2023-10-13T13:57:50;23.20;99.90
24011;DHT22;12217;50.792;4.372;2023-10-13T14:00:19;23.20;99.90
24011;DHT22;12217;50.792;4.372;2023-10-13T14:03:07;23.10;99.90
24011;DHT22;12217;50.792;4.372;2023-10-13T14:05:59;22.90;99.90
24011;DHT22;12217;50.792;4.372;2023-10-13T14:08:26;22.80;99.90
24011;DHT22;12217;50.792;4.372;2023-10-13T14:10:55;22.90;99.90
24011;DHT22;12217;50.792;4.372;2023-10-13T14:13:47;22.90;99.90
24011;DHT22;12217;50.792;4.372;2023-10-13T14:16:20;22.70;99.90
24011;DHT22;12217;50.792;4.372;2023-10-13T14:18:47;22.60;99.90
24011;DHT22;12217;50.792;4.372;2023-10-13T14:21:13;22.70;99.90
24011;DHT22;12217;50.792;4.372;2023-10-13T14:23:45;22.60;99.90
24011;DHT22;12217;50.792;4.372;2023-10-13T14:26:18;22.60;99.90
24011;DHT22;12217;50.792;4.372;2023-10-13T14:28:51;22.60;99.90
24011;DHT22;12217;50.792;4.372;2023-10-13T14:31:35;22.60;99.90
24011;DHT22;12217;50.792;4.372;2023-10-13T14:34:05;22.50;99.90
24011;DHT22;12217;50.792;4.372;2023-10-13T14:36:32;22.60;99.90
24011;DHT22;12217;50.792;4.372;2023-10-13T14:39:02;22.60;99.90
24011;DHT22;12217;50.792;4.372;2023-10-13T14:41:28;22.50;99.90
24011;DHT22;12217;50.792;4.372;2023-10-13T14:43:56;22.30;99.90
24011;DHT22;12217;50.792;4.372;2023-10-13T14:46:30;22.30;99.90
24011;DHT22;12217;50.792;4.372;2023-10-13T14:48:56;22.50;99.90
24011;DHT22;12217;50.792;4.372;2023-10-13T14:51:23;22.40;99.90
24011;DHT22;12217;50.792;4.372;2023-10-13T14:53:51;22.50;99.90
24011;DHT22;12217;50.792;4.372;2023-10-13T14:56:21;22.40;99.90
24011;DHT22;12217;50.792;4.372;2023-10-13T14:58:52;22.30;99.90
24011;DHT22;12217;50.792;4.372;2023-10-13T15:01:20;22.30;99.90
24011;DHT22;12217;50.792;4.372;2023-10-13T15:03:50;22.40;99.90
24011;DHT22;12217;50.792;4.372;2023-10-13T15:06:20;22.30;99.90
24011;DHT22;12217;50.792;4.372;2023-10-13T15:08:47;22.20;99.90
24011;DHT22;12217;50.792;4.372;2023-10-13T15:11:13;22.20;99.90
24011;DHT22;12217;50.792;4.372;2023-10-13T15:13:42;22.10;99.90
24011;DHT22;12217;50.792;4.372;2023-10-13T15:16:17;22.30;99.90
24011;DHT22;12217;50.792;4.372;2023-10-13T15:18:47;22.20;99.90
24011;DHT22;12217;50.792;4.372;2023-10-13T15:21:26;22.10;99.90
24011;DHT22;12217;50.792;4.372;2023-10-13T15:23:56;22.10;99.90
24011;DHT22;12217;50.792;4.372;2023-10-13T15:26:29;22.10;99.90
24011;DHT22;12217;50.792;4.372;2023-10-13T15:28:55;22.00;99.90
24011;DHT22;12217;50.792;4.372;2023-10-13T15:31:26;21.90;99.90
24011;DHT22;12217;50.792;4.372;2023-10-13T15:34:04;21.80;99.90
24011;DHT22;12217;50.792;4.372;2023-10-13T15:36:41;21.70;99.90
24011;DHT22;12217;50.792;4.372;2023-10-13T15:39:10;21.70;99.90
24011;DHT22;12217;50.792;4.372;2023-10-13T15:41:37;21.80;99.90
24011;DHT22;12217;50.792;4.372;2023-10-13T15:44:10;21.80;99.90
24011;DHT22;12217;50.792;4.372;2023-10-13T15:46:36;21.70;99.90
24011;DHT22;12217;50.792;4.372;2023-10-13T15:49:03;21.80;99.90
24011;DHT22;12217;50.792;4.372;2023-10-13T15:51:32;21.70;99.90
24011;DHT22;12217;50.792;4.372;2023-10-13T15:53:59;21.60;99.90
24011;DHT22;12217;50.792;4.372;2023-10-13T15:56:27;21.40;99.90
24011;DHT22;12217;50.792;4.372;2023-10-13T15:59:00;21.50;99.90
24011;DHT22;12217;50.792;4.372;2023-10-13T16:01:32;21.60;99.90
24011;DHT22;12217;50.792;4.372;2023-10-13T16:03:59;21.80;99.90
24011;DHT22;12217;50.792;4.372;2023-10-13T16:06:25;21.70;99.90
24011;DHT22;12217;50.792;4.372;2023-10-13T16:08:52;21.70;99.90
24011;DHT22;12217;50.792;4.372;2023-10-13T16:11:18;21.80;99.90
24011;DHT22;12217;50.792;4.372;2023-10-13T16:13:44;21.70;99.90
24011;DHT22;12217;50.792;4.372;2023-10-13T16:16:20;21.60;99.90
24011;DHT22;12217;50.792;4.372;2023-10-13T16:18:50;21.50;99.90
24011;DHT22;12217;50.792;4.372;2023-10-13T16:21:17;21.50;99.90
24011;DHT22;12217;50.792;4.372;2023-10-13T16:23:43;21.50;99.90
24011;DHT22;12217;50.792;4.372;2023-10-13T16:26:19;21.30;99.90
24011;DHT22;12217;50.792;4.372;2023-10-13T16:28:51;21.20;99.90
24011;DHT22;12217;50.792;4.372;2023-10-13T16:31:23;21.10;99.90
24011;DHT22;12217;50.792;4.372;2023-10-13T16:33:53;21.10;99.90
24011;DHT22;12217;50.792;4.372;2023-10-13T16:36:21;21.00;99.90
24011;DHT22;12217;50.792;4.372;2023-10-13T16:38:48;21.00;99.90
24011;DHT22;12217;50.792;4.372;2023-10-13T16:41:13;20.80;99.90